sensor_id;sensor_type;location;lat;lon;timestamp;P1;durP1;ratioP1;P2;durP2;ratioP2
58152;SDS011;43967;51.634;5.566;2023-03-12T00:00:11;7.75;;;2.90;;
58152;SDS011;43967;51.634;5.566;2023-03-12T00:05:32;7.97;;;3.10;;
58152;SDS011;43967;51.634;5.566;2023-03-12T00:10:57;7.47;;;3.10;;
58152;SDS011;43967;51.634;5.566;2023-03-12T00:16:18;8.43;;;3.03;;
58152;SDS011;43967;51.634;5.566;2023-03-12T00:21:40;7.88;;;2.95;;
58152;SDS011;43967;51.634;5.566;2023-03-12T00:27:01;8.50;;;2.80;;
58152;SDS011;43967;51.634;5.566;2023-03-12T00:32:23;8.53;;;2.60;;
58152;SDS011;43967;51.634;5.566;2023-03-12T00:37:44;7.03;;;3.15;;
58152;SDS011;43967;51.634;5.566;2023-03-12T00:43:05;7.07;;;2.60;;
58152;SDS011;43967;51.634;5.566;2023-03-12T00:48:27;8.17;;;2.70;;
58152;SDS011;43967;51.634;5.566;2023-03-12T00:53:48;7.78;;;2.90;;
58152;SDS011;43967;51.634;5.566;2023-03-12T00:59:09;7.28;;;3.08;;
58152;SDS011;43967;51.634;5.566;2023-03-12T01:04:30;6.90;;;2.70;;
58152;SDS011;43967;51.634;5.566;2023-03-12T01:09:52;6.90;;;2.67;;
58152;SDS011;43967;51.634;5.566;2023-03-12T01:15:14;7.95;;;2.42;;
58152;SDS011;43967;51.634;5.566;2023-03-12T01:20:36;7.38;;;2.42;;
58152;SDS011;43967;51.634;5.566;2023-03-12T01:25:58;6.47;;;2.30;;
58152;SDS011;43967;51.634;5.566;2023-03-12T01:31:19;6.82;;;2.70;;
58152;SDS011;43967;51.634;5.566;2023-03-12T01:36:40;6.65;;;2.33;;
58152;SDS011;43967;51.634;5.566;2023-03-12T01:42:02;7.00;;;2.70;;
58152;SDS011;43967;51.634;5.566;2023-03-12T01:47:24;6.75;;;2.42;;
58152;SDS011;43967;51.634;5.566;2023-03-12T01:52:46;6.47;;;2.25;;
58152;SDS011;43967;51.634;5.566;2023-03-12T01:58:08;7.30;;;2.60;;
58152;SDS011;43967;51.634;5.566;2023-03-12T02:03:29;7.43;;;2.50;;
58152;SDS011;43967;51.634;5.566;2023-03-12T02:08:52;6.80;;;2.50;;
58152;SDS011;43967;51.634;5.566;2023-03-12T02:14:14;7.45;;;2.60;;
58152;SDS011;43967;51.634;5.566;2023-03-12T02:19:45;7.77;;;2.20;;
58152;SDS011;43967;51.634;5.566;2023-03-12T02:30:46;6.55;;;2.20;;
58152;SDS011;43967;51.634;5.566;2023-03-12T02:36:09;6.83;;;2.53;;
58152;SDS011;43967;51.634;5.566;2023-03-12T02:41:31;6.00;;;1.92;;
58152;SDS011;43967;51.634;5.566;2023-03-12T02:47:01;6.50;;;2.00;;
58152;SDS011;43967;51.634;5.566;2023-03-12T02:52:23;6.97;;;2.60;;
58152;SDS011;43967;51.634;5.566;2023-03-12T02:57:44;5.90;;;1.90;;
58152;SDS011;43967;51.634;5.566;2023-03-12T03:03:05;6.22;;;2.42;;
58152;SDS011;43967;51.634;5.566;2023-03-12T03:08:27;6.57;;;2.30;;
58152;SDS011;43967;51.634;5.566;2023-03-12T03:13:48;6.43;;;2.40;;
58152;SDS011;43967;51.634;5.566;2023-03-12T03:19:13;6.60;;;2.13;;
58152;SDS011;43967;51.634;5.566;2023-03-12T03:24:35;6.80;;;2.00;;
58152;SDS011;43967;51.634;5.566;2023-03-12T03:29:56;6.10;;;2.20;;
58152;SDS011;43967;51.634;5.566;2023-03-12T03:35:17;6.40;;;2.13;;
58152;SDS011;43967;51.634;5.566;2023-03-12T03:40:39;6.10;;;2.15;;
58152;SDS011;43967;51.634;5.566;2023-03-12T03:46:01;6.63;;;2.30;;
58152;SDS011;43967;51.634;5.566;2023-03-12T03:51:24;6.13;;;2.20;;
58152;SDS011;43967;51.634;5.566;2023-03-12T03:56:45;6.43;;;2.03;;
58152;SDS011;43967;51.634;5.566;2023-03-12T04:02:06;5.53;;;2.08;;
58152;SDS011;43967;51.634;5.566;2023-03-12T04:07:28;6.10;;;2.03;;
58152;SDS011;43967;51.634;5.566;2023-03-12T04:12:49;5.93;;;2.30;;
58152;SDS011;43967;51.634;5.566;2023-03-12T04:18:11;6.75;;;2.30;;
58152;SDS011;43967;51.634;5.566;2023-03-12T04:23:32;6.40;;;2.30;;
58152;SDS011;43967;51.634;5.566;2023-03-12T04:28:54;7.53;;;2.42;;
58152;SDS011;43967;51.634;5.566;2023-03-12T04:34:15;5.82;;;2.05;;
58152;SDS011;43967;51.634;5.566;2023-03-12T04:39:37;6.93;;;2.47;;
58152;SDS011;43967;51.634;5.566;2023-03-12T04:44:58;6.57;;;2.20;;
58152;SDS011;43967;51.634;5.566;2023-03-12T04:50:19;6.85;;;2.33;;
58152;SDS011;43967;51.634;5.566;2023-03-12T04:55:40;6.47;;;2.47;;
58152;SDS011;43967;51.634;5.566;2023-03-12T05:01:02;6.17;;;2.23;;
58152;SDS011;43967;51.634;5.566;2023-03-12T05:06:24;5.80;;;2.10;;
58152;SDS011;43967;51.634;5.566;2023-03-12T05:11:46;6.65;;;2.00;;
58152;SDS011;43967;51.634;5.566;2023-03-12T05:17:07;6.73;;;2.10;;
58152;SDS011;43967;51.634;5.566;2023-03-12T05:22:29;6.43;;;2.28;;
58152;SDS011;43967;51.634;5.566;2023-03-12T05:27:50;7.03;;;2.22;;
58152;SDS011;43967;51.634;5.566;2023-03-12T05:33:11;6.20;;;2.27;;
58152;SDS011;43967;51.634;5.566;2023-03-12T05:38:33;5.90;;;1.97;;
58152;SDS011;43967;51.634;5.566;2023-03-12T05:43:55;6.93;;;2.30;;
58152;SDS011;43967;51.634;5.566;2023-03-12T05:49:17;6.85;;;2.22;;
58152;SDS011;43967;51.634;5.566;2023-03-12T05:54:39;6.07;;;2.13;;
58152;SDS011;43967;51.634;5.566;2023-03-12T06:00:01;6.43;;;2.15;;
58152;SDS011;43967;51.634;5.566;2023-03-12T06:05:23;5.93;;;1.80;;
58152;SDS011;43967;51.634;5.566;2023-03-12T06:10:44;6.13;;;2.27;;
58152;SDS011;43967;51.634;5.566;2023-03-12T06:16:07;7.00;;;2.00;;
58152;SDS011;43967;51.634;5.566;2023-03-12T06:21:32;5.82;;;1.95;;
58152;SDS011;43967;51.634;5.566;2023-03-12T06:26:54;7.60;;;2.40;;
58152;SDS011;43967;51.634;5.566;2023-03-12T06:32:17;6.27;;;1.87;;
58152;SDS011;43967;51.634;5.566;2023-03-12T06:37:38;5.90;;;1.88;;
58152;SDS011;43967;51.634;5.566;2023-03-12T06:43:00;7.47;;;2.20;;
58152;SDS011;43967;51.634;5.566;2023-03-12T06:48:22;6.13;;;1.80;;
58152;SDS011;43967;51.634;5.566;2023-03-12T06:53:44;6.68;;;2.15;;
58152;SDS011;43967;51.634;5.566;2023-03-12T06:59:06;5.90;;;1.75;;
58152;SDS011;43967;51.634;5.566;2023-03-12T07:04:27;5.63;;;1.70;;
58152;SDS011;43967;51.634;5.566;2023-03-12T07:09:48;7.82;;;2.13;;
58152;SDS011;43967;51.634;5.566;2023-03-12T07:15:10;6.38;;;1.90;;
58152;SDS011;43967;51.634;5.566;2023-03-12T07:20:32;6.77;;;1.80;;
58152;SDS011;43967;51.634;5.566;2023-03-12T07:25:56;6.67;;;2.03;;
58152;SDS011;43967;51.634;5.566;2023-03-12T07:31:17;5.50;;;1.90;;
58152;SDS011;43967;51.634;5.566;2023-03-12T07:36:38;6.05;;;2.20;;
58152;SDS011;43967;51.634;5.566;2023-03-12T07:42:00;5.70;;;1.60;;
58152;SDS011;43967;51.634;5.566;2023-03-12T07:47:21;7.43;;;1.80;;
58152;SDS011;43967;51.634;5.566;2023-03-12T07:52:43;6.25;;;1.75;;
58152;SDS011;43967;51.634;5.566;2023-03-12T07:58:05;5.47;;;1.67;;
58152;SDS011;43967;51.634;5.566;2023-03-12T08:03:26;7.10;;;2.00;;
58152;SDS011;43967;51.634;5.566;2023-03-12T08:08:47;5.90;;;1.48;;
58152;SDS011;43967;51.634;5.566;2023-03-12T08:14:09;6.30;;;1.70;;
58152;SDS011;43967;51.634;5.566;2023-03-12T08:19:30;6.33;;;1.87;;
58152;SDS011;43967;51.634;5.566;2023-03-12T08:24:51;5.97;;;1.83;;
58152;SDS011;43967;51.634;5.566;2023-03-12T08:30:12;5.93;;;1.88;;
58152;SDS011;43967;51.634;5.566;2023-03-12T08:35:34;6.13;;;1.77;;
58152;SDS011;43967;51.634;5.566;2023-03-12T08:40:56;6.30;;;1.70;;
58152;SDS011;43967;51.634;5.566;2023-03-12T08:46:18;5.15;;;1.52;;
58152;SDS011;43967;51.634;5.566;2023-03-12T08:51:39;5.80;;;1.80;;
58152;SDS011;43967;51.634;5.566;2023-03-12T08:57:00;5.30;;;1.40;;
58152;SDS011;43967;51.634;5.566;2023-03-12T09:02:22;5.22;;;1.67;;
58152;SDS011;43967;51.634;5.566;2023-03-12T09:07:43;6.00;;;1.70;;
58152;SDS011;43967;51.634;5.566;2023-03-12T09:13:04;5.60;;;1.70;;
58152;SDS011;43967;51.634;5.566;2023-03-12T09:18:27;5.60;;;1.70;;
58152;SDS011;43967;51.634;5.566;2023-03-12T09:23:49;5.00;;;1.42;;
58152;SDS011;43967;51.634;5.566;2023-03-12T09:29:10;6.63;;;1.97;;
58152;SDS011;43967;51.634;5.566;2023-03-12T09:34:31;6.25;;;1.98;;
58152;SDS011;43967;51.634;5.566;2023-03-12T09:39:53;5.85;;;2.00;;
58152;SDS011;43967;51.634;5.566;2023-03-12T09:45:15;6.53;;;2.23;;
58152;SDS011;43967;51.634;5.566;2023-03-12T09:50:41;5.90;;;2.08;;
58152;SDS011;43967;51.634;5.566;2023-03-12T09:56:08;5.57;;;1.88;;
58152;SDS011;43967;51.634;5.566;2023-03-12T10:01:37;6.00;;;2.10;;
58152;SDS011;43967;51.634;5.566;2023-03-12T10:07:47;6.10;;;2.27;;
58152;SDS011;43967;51.634;5.566;2023-03-12T10:24:39;6.73;;;2.37;;
58152;SDS011;43967;51.634;5.566;2023-03-12T10:30:20;6.40;;;2.30;;
58152;SDS011;43967;51.634;5.566;2023-03-12T10:35:44;6.35;;;2.20;;
58152;SDS011;43967;51.634;5.566;2023-03-12T10:41:13;7.60;;;2.43;;
58152;SDS011;43967;51.634;5.566;2023-03-12T10:52:30;6.72;;;2.85;;
58152;SDS011;43967;51.634;5.566;2023-03-12T10:57:51;6.70;;;2.90;;
58152;SDS011;43967;51.634;5.566;2023-03-12T11:03:20;6.67;;;2.87;;
58152;SDS011;43967;51.634;5.566;2023-03-12T11:08:41;7.72;;;2.90;;
58152;SDS011;43967;51.634;5.566;2023-03-12T11:14:25;7.88;;;2.88;;
58152;SDS011;43967;51.634;5.566;2023-03-12T11:19:48;8.27;;;2.80;;
58152;SDS011;43967;51.634;5.566;2023-03-12T11:25:18;6.75;;;3.00;;
58152;SDS011;43967;51.634;5.566;2023-03-12T11:30:47;7.88;;;2.65;;
58152;SDS011;43967;51.634;5.566;2023-03-12T11:36:14;7.60;;;2.80;;
58152;SDS011;43967;51.634;5.566;2023-03-12T11:42:09;7.15;;;2.47;;
58152;SDS011;43967;51.634;5.566;2023-03-12T12:10:41;8.57;;;2.78;;
58152;SDS011;43967;51.634;5.566;2023-03-12T12:16:30;13.57;;;3.30;;
58152;SDS011;43967;51.634;5.566;2023-03-12T12:27:43;15.27;;;4.35;;
58152;SDS011;43967;51.634;5.566;2023-03-12T12:39:04;12.45;;;3.25;;
58152;SDS011;43967;51.634;5.566;2023-03-12T12:44:37;11.45;;;3.38;;
58152;SDS011;43967;51.634;5.566;2023-03-12T12:50:03;10.10;;;3.20;;
58152;SDS011;43967;51.634;5.566;2023-03-12T12:55:26;12.30;;;2.93;;
58152;SDS011;43967;51.634;5.566;2023-03-12T13:01:18;9.20;;;2.80;;
58152;SDS011;43967;51.634;5.566;2023-03-12T13:12:35;9.60;;;2.70;;
58152;SDS011;43967;51.634;5.566;2023-03-12T13:18:22;10.80;;;2.85;;
58152;SDS011;43967;51.634;5.566;2023-03-12T13:34:48;11.23;;;2.85;;
58152;SDS011;43967;51.634;5.566;2023-03-12T13:45:59;8.70;;;2.30;;
58152;SDS011;43967;51.634;5.566;2023-03-12T13:51:25;11.47;;;2.83;;
58152;SDS011;43967;51.634;5.566;2023-03-12T13:56:58;12.90;;;3.00;;
58152;SDS011;43967;51.634;5.566;2023-03-12T14:02:31;9.48;;;2.70;;
58152;SDS011;43967;51.634;5.566;2023-03-12T14:08:00;9.90;;;2.73;;
58152;SDS011;43967;51.634;5.566;2023-03-12T14:13:39;9.98;;;2.80;;
58152;SDS011;43967;51.634;5.566;2023-03-12T14:19:10;10.55;;;2.60;;
58152;SDS011;43967;51.634;5.566;2023-03-12T14:24:34;10.10;;;2.63;;
58152;SDS011;43967;51.634;5.566;2023-03-12T14:35:39;12.57;;;2.97;;
58152;SDS011;43967;51.634;5.566;2023-03-12T14:41:18;12.20;;;2.87;;
58152;SDS011;43967;51.634;5.566;2023-03-12T14:47:26;11.13;;;2.80;;
58152;SDS011;43967;51.634;5.566;2023-03-12T14:52:29;8.55;;;2.63;;
58152;SDS011;43967;51.634;5.566;2023-03-12T14:58:13;9.68;;;2.30;;
58152;SDS011;43967;51.634;5.566;2023-03-12T15:03:40;9.23;;;2.50;;
58152;SDS011;43967;51.634;5.566;2023-03-12T15:09:15;9.00;;;2.33;;
58152;SDS011;43967;51.634;5.566;2023-03-12T15:14:41;9.30;;;2.35;;
58152;SDS011;43967;51.634;5.566;2023-03-12T15:20:03;10.77;;;2.57;;
58152;SDS011;43967;51.634;5.566;2023-03-12T15:25:31;9.80;;;2.20;;
58152;SDS011;43967;51.634;5.566;2023-03-12T15:31:07;8.30;;;2.25;;
58152;SDS011;43967;51.634;5.566;2023-03-12T15:36:33;9.00;;;2.57;;
58152;SDS011;43967;51.634;5.566;2023-03-12T15:41:55;12.50;;;2.97;;
58152;SDS011;43967;51.634;5.566;2023-03-12T15:47:22;9.90;;;2.53;;
58152;SDS011;43967;51.634;5.566;2023-03-12T15:53:03;11.00;;;2.55;;
58152;SDS011;43967;51.634;5.566;2023-03-12T15:58:31;10.40;;;2.63;;
58152;SDS011;43967;51.634;5.566;2023-03-12T16:03:57;7.70;;;2.10;;
58152;SDS011;43967;51.634;5.566;2023-03-12T16:09:19;10.95;;;2.50;;
58152;SDS011;43967;51.634;5.566;2023-03-12T16:14:45;11.43;;;2.70;;
58152;SDS011;43967;51.634;5.566;2023-03-12T16:20:10;10.45;;;2.50;;
58152;SDS011;43967;51.634;5.566;2023-03-12T16:25:32;9.90;;;2.45;;
58152;SDS011;43967;51.634;5.566;2023-03-12T16:30:55;13.53;;;2.80;;
58152;SDS011;43967;51.634;5.566;2023-03-12T16:36:16;9.13;;;2.70;;
58152;SDS011;43967;51.634;5.566;2023-03-12T16:41:38;16.10;;;3.13;;
58152;SDS011;43967;51.634;5.566;2023-03-12T16:46:59;8.30;;;2.15;;
58152;SDS011;43967;51.634;5.566;2023-03-12T16:52:21;10.83;;;2.43;;
58152;SDS011;43967;51.634;5.566;2023-03-12T16:57:50;9.48;;;2.53;;
58152;SDS011;43967;51.634;5.566;2023-03-12T17:03:19;10.38;;;2.70;;
58152;SDS011;43967;51.634;5.566;2023-03-12T17:08:51;9.00;;;2.30;;
58152;SDS011;43967;51.634;5.566;2023-03-12T17:14:14;11.60;;;2.60;;
58152;SDS011;43967;51.634;5.566;2023-03-12T17:19:39;8.95;;;2.42;;
58152;SDS011;43967;51.634;5.566;2023-03-12T17:25:00;9.30;;;2.57;;
58152;SDS011;43967;51.634;5.566;2023-03-12T17:30:22;9.87;;;2.60;;
58152;SDS011;43967;51.634;5.566;2023-03-12T17:35:43;8.15;;;2.40;;
58152;SDS011;43967;51.634;5.566;2023-03-12T17:41:05;8.65;;;2.55;;
58152;SDS011;43967;51.634;5.566;2023-03-12T17:46:27;10.27;;;2.70;;
58152;SDS011;43967;51.634;5.566;2023-03-12T17:51:48;9.52;;;2.20;;
58152;SDS011;43967;51.634;5.566;2023-03-12T17:57:09;9.05;;;2.42;;
58152;SDS011;43967;51.634;5.566;2023-03-12T18:02:31;10.97;;;2.90;;
58152;SDS011;43967;51.634;5.566;2023-03-12T18:07:52;10.50;;;2.55;;
58152;SDS011;43967;51.634;5.566;2023-03-12T18:13:13;7.50;;;2.03;;
58152;SDS011;43967;51.634;5.566;2023-03-12T18:18:35;11.50;;;2.90;;
58152;SDS011;43967;51.634;5.566;2023-03-12T18:23:56;9.00;;;2.40;;
58152;SDS011;43967;51.634;5.566;2023-03-12T18:29:17;9.80;;;2.65;;
58152;SDS011;43967;51.634;5.566;2023-03-12T18:34:39;10.63;;;2.90;;
58152;SDS011;43967;51.634;5.566;2023-03-12T18:40:00;9.47;;;2.30;;
58152;SDS011;43967;51.634;5.566;2023-03-12T18:45:21;9.57;;;2.30;;
58152;SDS011;43967;51.634;5.566;2023-03-12T18:50:42;9.13;;;2.55;;
58152;SDS011;43967;51.634;5.566;2023-03-12T18:56:04;11.37;;;2.60;;
58152;SDS011;43967;51.634;5.566;2023-03-12T19:01:26;9.70;;;2.67;;
58152;SDS011;43967;51.634;5.566;2023-03-12T19:06:47;10.68;;;2.60;;
58152;SDS011;43967;51.634;5.566;2023-03-12T19:12:08;11.23;;;2.67;;
58152;SDS011;43967;51.634;5.566;2023-03-12T19:17:30;8.63;;;2.30;;
58152;SDS011;43967;51.634;5.566;2023-03-12T19:22:51;13.48;;;2.90;;
58152;SDS011;43967;51.634;5.566;2023-03-12T19:28:12;11.07;;;2.75;;
58152;SDS011;43967;51.634;5.566;2023-03-12T19:33:34;11.10;;;2.50;;
58152;SDS011;43967;51.634;5.566;2023-03-12T19:38:55;9.63;;;2.33;;
58152;SDS011;43967;51.634;5.566;2023-03-12T19:44:16;14.35;;;2.90;;
58152;SDS011;43967;51.634;5.566;2023-03-12T19:49:37;15.40;;;2.80;;
58152;SDS011;43967;51.634;5.566;2023-03-12T19:54:59;13.18;;;2.92;;
58152;SDS011;43967;51.634;5.566;2023-03-12T20:00:20;14.38;;;3.00;;
58152;SDS011;43967;51.634;5.566;2023-03-12T20:05:44;14.63;;;2.80;;
58152;SDS011;43967;51.634;5.566;2023-03-12T20:11:07;13.00;;;2.90;;
58152;SDS011;43967;51.634;5.566;2023-03-12T20:16:29;12.55;;;3.25;;
58152;SDS011;43967;51.634;5.566;2023-03-12T20:21:51;10.07;;;2.72;;
58152;SDS011;43967;51.634;5.566;2023-03-12T20:27:12;12.60;;;2.93;;
58152;SDS011;43967;51.634;5.566;2023-03-12T20:32:33;13.65;;;2.72;;
58152;SDS011;43967;51.634;5.566;2023-03-12T20:37:55;10.73;;;2.20;;
58152;SDS011;43967;51.634;5.566;2023-03-12T20:43:16;11.40;;;2.70;;
58152;SDS011;43967;51.634;5.566;2023-03-12T20:48:37;15.38;;;3.08;;
58152;SDS011;43967;51.634;5.566;2023-03-12T20:53:58;12.82;;;2.88;;
58152;SDS011;43967;51.634;5.566;2023-03-12T20:59:20;11.00;;;2.13;;
58152;SDS011;43967;51.634;5.566;2023-03-12T21:04:41;12.80;;;2.50;;
58152;SDS011;43967;51.634;5.566;2023-03-12T21:10:03;11.55;;;2.63;;
58152;SDS011;43967;51.634;5.566;2023-03-12T21:15:24;14.70;;;2.83;;
58152;SDS011;43967;51.634;5.566;2023-03-12T21:20:45;12.80;;;2.90;;
58152;SDS011;43967;51.634;5.566;2023-03-12T21:26:07;11.48;;;3.00;;
58152;SDS011;43967;51.634;5.566;2023-03-12T21:31:28;10.68;;;2.65;;
58152;SDS011;43967;51.634;5.566;2023-03-12T21:36:50;10.07;;;2.57;;
58152;SDS011;43967;51.634;5.566;2023-03-12T21:42:11;11.45;;;2.63;;
58152;SDS011;43967;51.634;5.566;2023-03-12T21:47:34;14.18;;;2.50;;
58152;SDS011;43967;51.634;5.566;2023-03-12T21:52:56;11.50;;;2.43;;
58152;SDS011;43967;51.634;5.566;2023-03-12T21:58:17;17.57;;;3.30;;
58152;SDS011;43967;51.634;5.566;2023-03-12T22:03:39;10.10;;;2.38;;
58152;SDS011;43967;51.634;5.566;2023-03-12T22:09:01;11.20;;;2.42;;
58152;SDS011;43967;51.634;5.566;2023-03-12T22:14:22;10.43;;;2.20;;
58152;SDS011;43967;51.634;5.566;2023-03-12T22:19:44;10.93;;;2.35;;
58152;SDS011;43967;51.634;5.566;2023-03-12T22:25:05;10.88;;;2.65;;
58152;SDS011;43967;51.634;5.566;2023-03-12T22:30:28;9.40;;;2.23;;
58152;SDS011;43967;51.634;5.566;2023-03-12T22:35:49;11.70;;;2.38;;
58152;SDS011;43967;51.634;5.566;2023-03-12T22:46:32;10.33;;;2.50;;
58152;SDS011;43967;51.634;5.566;2023-03-12T22:51:53;10.33;;;2.50;;
58152;SDS011;43967;51.634;5.566;2023-03-12T22:57:14;6.50;;;1.95;;
58152;SDS011;43967;51.634;5.566;2023-03-12T23:02:36;11.05;;;2.45;;
58152;SDS011;43967;51.634;5.566;2023-03-12T23:07:57;10.67;;;2.67;;
58152;SDS011;43967;51.634;5.566;2023-03-12T23:13:19;9.48;;;2.25;;
58152;SDS011;43967;51.634;5.566;2023-03-12T23:18:41;8.35;;;2.00;;
58152;SDS011;43967;51.634;5.566;2023-03-12T23:24:03;8.27;;;2.50;;
58152;SDS011;43967;51.634;5.566;2023-03-12T23:29:24;10.23;;;2.30;;
58152;SDS011;43967;51.634;5.566;2023-03-12T23:34:46;9.50;;;2.70;;
58152;SDS011;43967;51.634;5.566;2023-03-12T23:40:07;8.33;;;2.33;;
58152;SDS011;43967;51.634;5.566;2023-03-12T23:45:29;8.37;;;2.27;;
58152;SDS011;43967;51.634;5.566;2023-03-12T23:50:50;9.48;;;2.92;;
58152;SDS011;43967;51.634;5.566;2023-03-12T23:56:13;10.98;;;2.45;;
